Time;durP1;ratioP1;P1;durP2;ratioP2;P2;SDS_P1;SDS_P2;PMS_P1;PMS_P2;Temp;Humidity;BMP_temperature;BMP_pressure;BME280_temperature;BME280_humidity;BME280_pressure;Samples;Min_cycle;Max_cycle;Signal;HPM_P1;HPM_P2
2023/08/12 00:01:01;;;;;;;4.20;2.00;;;;;;;24.33;69.30;101826.28;5069481;28;20037;-45
2023/08/12 00:03:27;;;;;;;6.75;2.03;;;;;;;24.25;70.05;101828.28;5068580;28;20033;-45
2023/08/12 00:05:53;;;;;;;5.55;2.10;;;;;;;24.23;69.98;101817.66;5069380;28;20037;-43
2023/08/12 00:08:18;;;;;;;5.93;1.80;;;;;;;24.27;70.34;101809.59;5069250;28;20039;-44
2023/08/12 00:10:43;;;;;;;5.18;1.80;;;;;;;24.23;70.54;101809.66;5069950;28;20036;-43
2023/08/12 00:13:09;;;;;;;5.63;2.05;;;;;;;24.22;70.86;101818.56;5069131;28;20043;-47
2023/08/12 00:15:34;;;;;;;4.53;1.90;;;;;;;24.25;70.89;101797.19;5069437;28;20044;-50
2023/08/12 00:17:59;;;;;;;5.07;1.60;;;;;;;24.38;70.49;101797.69;5073248;28;20029;-45
2023/08/12 00:20:25;;;;;;;5.15;2.08;;;;;;;24.37;70.37;101797.75;5072815;28;20140;-49
2023/08/12 00:22:50;;;;;;;6.00;1.75;;;;;;;24.37;70.49;101800.41;5072853;28;20519;-47
2023/08/12 00:25:15;;;;;;;3.22;1.63;;;;;;;24.33;70.54;101794.31;5072498;28;20403;-45
2023/08/12 00:27:41;;;;;;;6.10;1.80;;;;;;;24.34;69.76;101792.47;5072814;28;20526;-50
2023/08/12 00:30:07;;;;;;;6.32;1.88;;;;;;;24.31;70.42;101785.47;5073101;28;20032;-44
2023/08/12 00:32:32;;;;;;;5.00;1.88;;;;;;;24.24;70.49;101784.75;5072604;28;20035;-48
2023/08/12 00:34:57;;;;;;;3.70;1.60;;;;;;;24.29;70.12;101791.75;5072389;28;20057;-47
2023/08/12 00:37:23;;;;;;;8.00;1.95;;;;;;;24.30;70.23;101786.38;5072568;28;20040;-48
2023/08/12 00:39:48;;;;;;;4.53;1.98;;;;;;;24.26;70.35;101779.41;5073001;28;20029;-46
2023/08/12 00:42:13;;;;;;;4.03;1.90;;;;;;;24.25;70.66;101780.31;5072383;28;20477;-49
2023/08/12 00:44:39;;;;;;;6.88;2.10;;;;;;;24.27;70.59;101774.00;5072385;28;20032;-48
2023/08/12 00:47:04;;;;;;;5.72;2.10;;;;;;;24.22;71.30;101772.38;5073319;28;20064;-46
2023/08/12 00:49:32;;;;;;;5.53;2.28;;;;;;;24.24;70.85;101767.91;5072708;28;20048;-49
2023/08/12 00:51:58;;;;;;;8.23;2.10;;;;;;;24.16;70.97;101773.41;5073228;28;20029;-45
2023/08/12 00:54:25;;;;;;;4.22;2.13;;;;;;;24.20;71.00;101766.25;5071940;28;20078;-46
2023/08/12 00:56:51;;;;;;;3.85;1.90;;;;;;;24.22;71.13;101769.72;5072793;28;20044;-48
2023/08/12 00:59:17;;;;;;;7.80;2.15;;;;;;;24.20;71.15;101761.81;5072109;28;20521;-51
2023/08/12 01:01:44;;;;;;;4.60;1.90;;;;;;;24.23;70.99;101766.16;5072857;28;20052;-44
2023/08/12 01:04:09;;;;;;;5.70;1.95;;;;;;;24.27;70.92;101764.28;5072260;28;20055;-48
2023/08/12 01:06:36;;;;;;;4.57;1.92;;;;;;;24.32;71.17;101762.34;5072795;28;20491;-49
2023/08/12 01:09:07;;;;;;;5.43;2.22;;;;;;;24.28;71.55;101758.88;5072571;28;20094;-53
2023/08/12 01:11:33;;;;;;;5.75;2.42;;;;;;;24.30;71.25;101764.19;5071897;28;20024;-48
2023/08/12 01:14:17;;;;;;;6.10;1.98;;;;;;;24.35;71.24;101755.13;5071715;28;20036;-44
2023/08/12 01:16:47;;;;;;;4.75;1.92;;;;;;;24.34;71.69;101758.72;5072322;28;20043;-44
2023/08/12 01:19:26;;;;;;;6.85;2.40;;;;;;;24.44;71.12;101751.34;5071406;28;20048;-45
2023/08/12 01:21:54;;;;;;;5.50;2.22;;;;;;;24.50;70.57;101748.47;5072289;28;20060;-47
2023/08/12 01:24:22;;;;;;;6.22;2.45;;;;;;;24.52;70.69;101741.28;5071402;28;20178;-44
2023/08/12 01:26:47;;;;;;;6.07;2.65;;;;;;;24.53;70.71;101745.69;5072290;28;20098;-48
2023/08/12 01:29:14;;;;;;;6.80;2.60;;;;;;;24.48;70.64;101731.66;5069098;28;20052;-45
2023/08/12 01:31:51;;;;;;;4.38;2.20;;;;;;;24.51;70.48;101728.91;5072037;28;20028;-45
2023/08/12 01:34:36;;;;;;;4.57;2.10;;;;;;;24.55;70.20;101727.88;5070909;28;20505;-48
2023/08/12 01:37:07;;;;;;;5.82;2.20;;;;;;;24.52;70.19;101720.84;5072089;28;20119;-46
2023/08/12 01:39:35;;;;;;;6.57;2.15;;;;;;;24.50;70.40;101722.69;5071353;28;20040;-45
2023/08/12 01:42:01;;;;;;;3.97;2.00;;;;;;;24.57;70.21;101720.72;5072095;28;20056;-50
2023/08/12 01:44:26;;;;;;;3.80;1.85;;;;;;;24.52;70.21;101718.16;5070897;28;20028;-44
2023/08/12 01:46:52;;;;;;;4.15;2.10;;;;;;;24.53;70.43;101721.72;5071656;28;20032;-44
2023/08/12 01:49:17;;;;;;;3.47;1.90;;;;;;;24.63;69.79;101728.53;5071060;28;20037;-45
2023/08/12 01:51:43;;;;;;;5.07;2.20;;;;;;;24.65;70.40;101716.88;5071517;28;20033;-45
2023/08/12 01:54:08;;;;;;;3.65;2.00;;;;;;;24.66;70.06;101720.41;5071113;28;20788;-44
2023/08/12 01:56:33;;;;;;;6.07;2.15;;;;;;;24.67;69.83;101714.16;5071086;28;20024;-46
2023/08/12 01:58:58;;;;;;;5.43;2.10;;;;;;;24.61;70.43;101712.56;5071362;28;20035;-46
2023/08/12 02:01:24;;;;;;;3.92;1.90;;;;;;;24.72;69.64;101709.53;5070780;28;20109;-43
2023/08/12 02:03:49;;;;;;;3.88;1.70;;;;;;;24.70;69.62;101711.41;5070628;28;20116;-45
2023/08/12 02:06:14;;;;;;;3.33;1.88;;;;;;;24.70;70.14;101705.22;5071014;28;20040;-46
2023/08/12 02:08:40;;;;;;;6.03;2.33;;;;;;;24.65;70.04;101698.19;5071042;28;20028;-47
2023/08/12 02:11:05;;;;;;;6.05;2.40;;;;;;;24.65;70.08;101692.88;5071247;28;20074;-44
2023/08/12 02:13:30;;;;;;;5.30;2.58;;;;;;;24.71;69.82;101696.25;5070565;28;20043;-46
2023/08/12 02:15:56;;;;;;;4.88;2.50;;;;;;;24.75;69.90;101698.81;5071673;28;20062;-44
2023/08/12 02:18:21;;;;;;;4.95;2.40;;;;;;;24.67;70.08;101693.69;5071340;28;20125;-46
2023/08/12 02:20:48;;;;;;;6.45;2.17;;;;;;;24.69;69.90;101703.44;5073547;28;20032;-47
2023/08/12 02:23:13;;;;;;;4.43;2.33;;;;;;;24.64;70.50;101699.13;5074774;28;20490;-44
2023/08/12 02:25:38;;;;;;;6.90;2.88;;;;;;;24.63;70.43;101686.72;5075322;28;20028;-50
2023/08/12 02:28:04;;;;;;;4.28;2.55;;;;;;;24.65;70.20;101692.88;5074565;28;20104;-46
2023/08/12 02:30:30;;;;;;;6.20;2.60;;;;;;;24.63;70.51;101686.72;5073737;28;20036;-47
2023/08/12 02:32:55;;;;;;;6.78;2.97;;;;;;;24.50;71.55;101688.03;5070046;28;20039;-45
2023/08/12 02:35:21;;;;;;;5.90;2.80;;;;;;;24.56;71.24;101687.84;5070222;28;20036;-50
2023/08/12 02:37:48;;;;;;;5.53;2.72;;;;;;;24.61;71.11;101685.91;5070854;28;20036;-46
2023/08/12 02:40:13;;;;;;;4.93;2.50;;;;;;;24.56;71.23;101678.97;5070248;28;20032;-48
2023/08/12 02:42:38;;;;;;;5.38;2.42;;;;;;;24.60;71.35;101685.94;5069323;28;20037;-46
2023/08/12 02:45:04;;;;;;;5.15;2.60;;;;;;;24.55;71.63;101683.44;5069794;28;20598;-49
2023/08/12 02:47:30;;;;;;;4.68;2.55;;;;;;;24.58;71.34;101675.31;5069984;28;20044;-43
2023/08/12 02:49:55;;;;;;;4.85;2.67;;;;;;;24.51;72.48;101672.91;5070426;28;20033;-47
2023/08/12 02:52:20;;;;;;;7.95;2.88;;;;;;;24.52;72.72;101667.50;5070390;28;20518;-44
2023/08/12 02:54:46;;;;;;;5.70;2.90;;;;;;;24.47;72.66;101672.13;5070101;28;20024;-49
2023/08/12 02:57:11;;;;;;;8.27;3.30;;;;;;;24.50;72.17;101668.50;5070582;28;20482;-51
2023/08/12 02:59:36;;;;;;;5.38;2.80;;;;;;;24.46;72.56;101666.84;5052932;28;20040;-46
2023/08/12 03:02:02;;;;;;;6.65;2.80;;;;;;;24.42;72.84;101663.41;5070145;28;20123;-50
2023/08/12 03:04:28;;;;;;;6.85;2.70;;;;;;;24.38;72.54;101656.44;5069269;28;20041;-47
2023/08/12 03:06:54;;;;;;;4.63;3.10;;;;;;;24.33;73.25;101660.16;5070216;28;20044;-47
2023/08/12 03:09:20;;;;;;;5.60;2.80;;;;;;;24.36;73.28;101652.06;5069630;28;20115;-47
2023/08/12 03:11:45;;;;;;;5.68;2.90;;;;;;;24.37;73.48;101645.81;5070246;28;20490;-47
2023/08/12 03:14:10;;;;;;;7.13;3.30;;;;;;;24.32;74.47;101648.63;5069426;28;20047;-49
2023/08/12 03:16:36;;;;;;;5.63;3.40;;;;;;;24.40;74.22;101641.25;5070202;28;20640;-44
2023/08/12 03:19:01;;;;;;;7.30;3.20;;;;;;;24.39;74.32;101642.19;5070545;28;20039;-46
2023/08/12 03:21:27;;;;;;;5.78;3.72;;;;;;;24.44;74.30;101644.72;5069518;28;20029;-45
2023/08/12 03:23:52;;;;;;;9.88;4.00;;;;;;;24.29;75.02;101632.72;5069188;28;20044;-47
2023/08/12 03:26:17;;;;;;;5.35;3.50;;;;;;;24.40;74.21;101629.72;5069549;28;20044;-47
2023/08/12 03:28:43;;;;;;;6.85;3.35;;;;;;;24.44;74.20;101628.72;5070581;28;20045;-44
2023/08/12 03:31:08;;;;;;;5.30;2.90;;;;;;;24.45;73.91;101631.34;5071143;28;20494;-44
2023/08/12 03:33:33;;;;;;;6.82;3.85;;;;;;;24.33;74.46;101621.06;5070148;28;20037;-47
2023/08/12 03:35:59;;;;;;;7.07;3.60;;;;;;;24.32;74.50;101619.31;5069728;28;20568;-44
2023/08/12 03:38:24;;;;;;;5.68;3.70;;;;;;;24.34;74.32;101625.44;5069345;28;20044;-44
2023/08/12 03:40:50;;;;;;;8.02;4.00;;;;;;;24.25;74.79;101617.75;5069822;28;20124;-49
2023/08/12 03:43:15;;;;;;;5.63;3.45;;;;;;;24.29;74.33;101619.41;5067474;28;20040;-49
2023/08/12 03:45:44;;;;;;;6.75;3.30;;;;;;;24.28;74.70;101620.31;5069912;28;20185;-50
2023/08/12 03:48:09;;;;;;;5.65;3.20;;;;;;;24.32;74.27;101621.97;5069533;28;20474;-45
2023/08/12 03:50:39;;;;;;;8.02;3.30;;;;;;;24.30;74.74;101617.59;5068367;28;20032;-48
2023/08/12 03:53:05;;;;;;;5.93;3.42;;;;;;;24.32;75.04;101611.31;5069172;28;20036;-51
2023/08/12 03:55:33;;;;;;;7.43;3.80;;;;;;;24.30;75.00;101606.94;5068828;28;20517;-47
2023/08/12 03:57:59;;;;;;;6.43;3.50;;;;;;;24.28;75.40;101604.31;5069813;28;20040;-53
2023/08/12 04:00:25;;;;;;;6.63;3.40;;;;;;;24.36;74.84;101594.31;5069411;28;20194;-50
2023/08/12 04:02:50;;;;;;;6.30;3.65;;;;;;;24.40;74.41;101595.06;5069032;28;20734;-47
2023/08/12 04:05:16;;;;;;;9.02;3.50;;;;;;;24.37;74.63;101584.53;5068936;28;20035;-48
2023/08/12 04:07:41;;;;;;;6.78;3.65;;;;;;;24.39;74.53;101583.56;5068956;28;20048;-51
2023/08/12 04:10:07;;;;;;;7.15;3.65;;;;;;;24.35;74.45;101573.03;5069502;28;20090;-45
2023/08/12 04:12:32;;;;;;;8.75;3.80;;;;;;;24.36;74.49;101578.31;5068974;28;20063;-43
2023/08/12 04:14:58;;;;;;;6.43;3.80;;;;;;;24.38;74.49;101576.47;5069084;28;20037;-46
2023/08/12 04:17:23;;;;;;;7.53;4.10;;;;;;;24.36;74.43;101578.31;5068751;28;20029;-46
2023/08/12 04:19:49;;;;;;;8.35;4.05;;;;;;;24.34;74.90;101572.16;5069565;28;20056;-46
2023/08/12 04:22:15;;;;;;;11.18;4.35;;;;;;;24.28;74.74;101575.00;5068624;28;20040;-48
2023/08/12 04:24:40;;;;;;;8.00;4.10;;;;;;;24.34;74.63;101569.47;5068800;28;20491;-48
2023/08/12 04:27:05;;;;;;;9.02;4.22;;;;;;;24.34;74.49;101565.94;5069492;28;20491;-42
2023/08/12 04:29:31;;;;;;;7.30;3.97;;;;;;;24.32;74.19;101573.13;5068710;28;20055;-44
2023/08/12 04:31:56;;;;;;;5.75;3.60;;;;;;;24.31;74.29;101561.59;5069455;28;20044;-41
2023/08/12 04:34:21;;;;;;;7.53;3.80;;;;;;;24.23;74.81;101561.84;5068317;28;20063;-41
2023/08/12 04:36:46;;;;;;;9.88;4.88;;;;;;;24.21;75.41;101560.16;5069391;28;20032;-47
2023/08/12 04:39:12;;;;;;;10.30;5.03;;;;;;;24.23;75.52;101560.97;5068674;28;20518;-45
2023/08/12 04:41:41;;;;;;;11.32;4.80;;;;;;;24.27;75.72;101559.97;5069050;28;20044;-45
2023/08/12 04:44:06;;;;;;;7.47;4.43;;;;;;;24.34;75.71;101558.81;5068540;28;20044;-42
2023/08/12 04:46:31;;;;;;;11.63;4.75;;;;;;;24.37;75.72;101561.41;5068806;28;20551;-42
2023/08/12 04:48:57;;;;;;;8.15;4.68;;;;;;;24.44;75.84;101560.28;5069082;28;20036;-44
2023/08/12 04:51:22;;;;;;;7.32;4.43;;;;;;;24.50;75.49;101557.41;5067539;28;20093;-42
2023/08/12 04:53:48;;;;;;;9.65;4.88;;;;;;;24.44;75.59;101552.28;5068606;28;20036;-42
2023/08/12 04:56:13;;;;;;;8.48;4.47;;;;;;;24.50;75.57;101540.56;5069187;28;20055;-43
2023/08/12 04:58:38;;;;;;;9.57;5.03;;;;;;;24.49;75.51;101542.34;5068915;28;20399;-42
2023/08/12 05:01:04;;;;;;;7.32;4.40;;;;;;;24.55;75.41;101542.13;5069270;28;20039;-44
2023/08/12 05:03:29;;;;;;;6.78;4.07;;;;;;;24.61;75.15;101541.06;5070093;28;20032;-45
2023/08/12 05:05:55;;;;;;;8.43;4.68;;;;;;;24.61;75.16;101530.38;5073248;28;20044;-46
2023/08/12 05:08:20;;;;;;;9.55;4.88;;;;;;;24.56;75.35;101537.69;5072884;28;20048;-52
2023/08/12 05:10:48;;;;;;;8.95;4.80;;;;;;;24.56;75.13;101545.69;5074217;28;20033;-44
2023/08/12 05:13:14;;;;;;;12.05;4.97;;;;;;;24.60;75.23;101536.63;5077961;28;20119;-48
2023/08/12 05:15:40;;;;;;;9.30;5.13;;;;;;;24.55;75.34;101539.47;5077907;28;20491;-45
2023/08/12 05:18:05;;;;;;;11.35;5.38;;;;;;;24.56;75.53;101549.22;5073896;28;20036;-49
2023/08/12 05:20:31;;;;;;;13.27;5.80;;;;;;;24.43;76.05;101542.53;5071405;28;20173;-46
2023/08/12 05:22:56;;;;;;;10.00;5.60;;;;;;;24.49;75.95;101546.81;5071689;28;20414;-46
2023/08/12 05:25:21;;;;;;;10.13;5.47;;;;;;;24.48;75.95;101547.72;5071312;28;20414;-44
2023/08/12 05:27:47;;;;;;;8.55;5.68;;;;;;;24.44;76.48;101554.97;5071712;28;20044;-47
2023/08/12 05:30:12;;;;;;;8.98;5.38;;;;;;;24.25;76.92;101553.81;5071554;28;20041;-47
2023/08/12 05:32:38;;;;;;;9.45;5.90;;;;;;;24.31;76.93;101550.94;5072658;28;20403;-43
2023/08/12 05:35:03;;;;;;;14.00;6.28;;;;;;;24.08;78.49;101559.66;5069874;28;20183;-43
2023/08/12 05:37:29;;;;;;;11.65;6.10;;;;;;;24.10;78.60;101549.81;5071261;28;20041;-42
2023/08/12 05:39:54;;;;;;;11.05;5.90;;;;;;;24.18;78.29;101549.56;5071651;28;20765;-43
2023/08/12 05:42:19;;;;;;;10.25;6.13;;;;;;;24.11;78.86;101542.69;5071082;28;20609;-49
2023/08/12 05:44:45;;;;;;;9.77;5.55;;;;;;;24.20;78.56;101542.44;5071322;28;20076;-46
2023/08/12 05:47:10;;;;;;;11.25;5.95;;;;;;;24.18;78.34;101544.22;5071809;28;20040;-46
2023/08/12 05:49:35;;;;;;;9.43;5.80;;;;;;;24.05;79.44;101540.22;5070979;28;20029;-45
2023/08/12 05:52:01;;;;;;;11.73;6.75;;;;;;;24.07;79.67;101557.91;5071738;28;20041;-48
2023/08/12 05:54:26;;;;;;;8.90;5.80;;;;;;;24.04;79.65;101550.00;5070403;28;20119;-49
2023/08/12 05:56:51;;;;;;;10.20;5.95;;;;;;;24.06;79.79;101557.94;5071936;28;20037;-44
2023/08/12 05:59:17;;;;;;;10.88;6.20;;;;;;;24.04;79.88;101547.34;5071135;28;20036;-46
2023/08/12 06:01:42;;;;;;;11.18;6.20;;;;;;;23.86;80.65;101532.81;5071653;28;20075;-46
2023/08/12 06:04:07;;;;;;;10.38;6.53;;;;;;;23.97;80.35;101542.28;5070803;28;20130;-46
2023/08/12 06:06:33;;;;;;;8.23;5.55;;;;;;;23.99;80.46;101535.09;5070661;28;20183;-49
2023/08/12 06:08:58;;;;;;;9.77;6.15;;;;;;;24.08;80.27;101535.69;5070770;28;20650;-47
2023/08/12 06:11:23;;;;;;;10.02;6.38;;;;;;;23.98;80.85;101536.88;5070082;28;20039;-43
2023/08/12 06:13:49;;;;;;;10.98;6.38;;;;;;;23.82;81.06;101539.16;5069797;28;20036;-50
2023/08/12 06:16:14;;;;;;;9.43;5.38;;;;;;;23.99;80.86;101530.63;5070477;28;20724;-45
2023/08/12 06:18:39;;;;;;;8.88;5.20;;;;;;;24.07;80.52;101533.94;5070778;28;20081;-48
2023/08/12 06:21:05;;;;;;;8.07;5.10;;;;;;;24.11;80.44;101542.69;5071207;28;20070;-46
2023/08/12 06:23:30;;;;;;;6.60;4.50;;;;;;;24.00;81.01;101543.03;5069757;28;20043;-53
2023/08/12 06:25:56;;;;;;;7.78;4.85;;;;;;;24.10;80.95;101540.94;5070606;28;20055;-46
2023/08/12 06:28:21;;;;;;;7.70;4.90;;;;;;;24.06;80.70;101539.31;5069846;28;20074;-46
2023/08/12 06:30:48;;;;;;;6.90;4.75;;;;;;;24.08;81.01;101540.13;5070280;28;20036;-46
2023/08/12 06:33:14;;;;;;;8.55;5.10;;;;;;;24.11;80.82;101532.03;5069516;28;20032;-46
2023/08/12 06:35:40;;;;;;;7.72;5.00;;;;;;;24.12;80.42;101531.97;5070540;28;20449;-44
2023/08/12 06:38:05;;;;;;;7.13;4.68;;;;;;;24.09;80.85;101526.75;5070342;28;20028;-46
2023/08/12 06:40:30;;;;;;;6.43;4.47;;;;;;;24.13;80.88;101525.75;5069708;28;20036;-49
2023/08/12 06:42:56;;;;;;;7.30;4.13;;;;;;;24.10;81.22;101531.16;5069729;28;20032;-45
2023/08/12 06:45:21;;;;;;;6.43;4.07;;;;;;;24.00;81.37;101531.50;5069632;28;20060;-43
2023/08/12 06:47:47;;;;;;;5.55;3.90;;;;;;;24.10;81.50;101533.81;5070088;28;20120;-47
2023/08/12 06:50:12;;;;;;;6.20;3.95;;;;;;;23.97;81.80;101535.13;5069812;28;20406;-46
2023/08/12 06:52:37;;;;;;;5.63;3.63;;;;;;;24.11;81.42;101530.25;5070134;28;20376;-44
2023/08/12 06:55:03;;;;;;;3.97;3.00;;;;;;;24.19;81.43;101530.91;5069735;28;20044;-50
2023/08/12 06:57:28;;;;;;;4.82;2.90;;;;;;;23.94;81.63;101531.69;5069743;28;20635;-45
2023/08/12 06:59:54;;;;;;;4.03;2.60;;;;;;;23.93;81.99;101537.94;5069963;28;20384;-46
2023/08/12 07:02:19;;;;;;;4.20;2.75;;;;;;;23.98;81.62;101538.66;5069428;28;20029;-50
2023/08/12 07:04:45;;;;;;;4.03;2.50;;;;;;;24.00;81.43;101544.81;5069492;28;20036;-47
2023/08/12 07:07:10;;;;;;;4.78;2.80;;;;;;;23.42;83.49;101551.88;5069935;28;20028;-46
2023/08/12 07:09:35;;;;;;;5.60;2.65;;;;;;;23.10;85.72;101557.25;5069406;28;20399;-46
2023/08/12 07:12:01;;;;;;;5.55;2.42;;;;;;;23.00;83.09;101564.56;5070500;28;20717;-46
2023/08/12 07:14:27;;;;;;;4.68;1.80;;;;;;;22.37;82.71;101577.72;5069808;28;20142;-47
2023/08/12 07:16:53;;;;;;;6.07;1.50;;;;;;;21.89;82.14;101585.00;5070623;28;20499;-46
2023/08/12 07:19:18;;;;;;;4.65;1.60;;;;;;;21.76;81.97;101569.34;5069821;28;20038;-48
2023/08/12 07:21:44;;;;;;;6.40;1.75;;;;;;;21.67;81.92;101568.66;5070328;28;20032;-43
2023/08/12 07:24:09;;;;;;;4.35;1.50;;;;;;;21.60;81.78;101567.91;5069986;28;20033;-46
2023/08/12 07:26:34;;;;;;;4.03;1.38;;;;;;;21.57;81.26;101567.09;5069520;28;20028;-47
2023/08/12 07:29:00;;;;;;;5.47;1.30;;;;;;;21.50;81.61;101569.00;5069897;28;20044;-46
2023/08/12 07:31:25;;;;;;;3.80;1.38;;;;;;;21.76;80.55;101566.69;5069798;28;20048;-45
2023/08/12 07:33:50;;;;;;;3.20;1.20;;;;;;;21.81;80.64;101571.88;5069899;28;20029;-46
2023/08/12 07:36:16;;;;;;;2.83;1.40;;;;;;;21.97;80.88;101569.78;5069237;28;20487;-44
2023/08/12 07:38:41;;;;;;;6.05;1.23;;;;;;;21.99;80.72;101568.84;5069797;28;20044;-47
2023/08/12 07:41:06;;;;;;;2.95;1.40;;;;;;;22.06;81.04;101567.81;5069671;28;20075;-45
2023/08/12 07:43:32;;;;;;;3.88;1.42;;;;;;;21.86;82.34;101572.66;5068721;28;20127;-47
2023/08/12 07:45:57;;;;;;;4.60;1.67;;;;;;;21.93;81.19;101571.59;5070259;28;20033;-48
2023/08/12 07:48:22;;;;;;;4.78;2.08;;;;;;;21.77;82.25;101575.53;5069751;28;20045;-45
2023/08/12 07:50:55;;;;;;;3.67;1.20;;;;;;;21.59;82.86;101587.38;5069844;28;20037;-47
2023/08/12 07:53:21;;;;;;;6.32;1.60;;;;;;;21.44;83.42;101585.91;5068796;28;20048;-44
2023/08/12 07:55:46;;;;;;;4.07;1.30;;;;;;;21.58;82.41;101590.06;5069412;28;20060;-49
2023/08/12 07:58:11;;;;;;;4.90;1.40;;;;;;;21.83;81.87;101596.63;5069280;28;20037;-45
2023/08/12 08:00:37;;;;;;;3.53;1.20;;;;;;;21.98;81.86;101598.97;5068761;28;20037;-45
2023/08/12 08:03:02;;;;;;;3.65;1.15;;;;;;;22.01;81.18;101600.69;5068977;28;20035;-47
2023/08/12 08:05:27;;;;;;;7.22;4.50;;;;;;;21.55;81.64;101593.66;5068956;28;20036;-45
2023/08/12 08:07:53;;;;;;;5.93;2.05;;;;;;;21.83;82.33;101588.66;5069427;28;20040;-45
2023/08/12 08:10:18;;;;;;;4.97;1.60;;;;;;;22.22;80.18;101585.13;5070462;28;20032;-44
2023/08/12 08:12:43;;;;;;;6.00;1.40;;;;;;;22.03;80.30;101583.78;5075709;28;20033;-44
2023/08/12 08:15:09;;;;;;;5.15;1.40;;;;;;;21.77;81.62;101575.53;5072046;28;20032;-46
2023/08/12 08:17:34;;;;;;;5.95;1.42;;;;;;;22.03;79.64;101575.81;5072337;28;20181;-46
2023/08/12 08:19:59;;;;;;;6.30;2.75;;;;;;;22.09;80.15;101581.00;5070250;28;20554;-45
2023/08/12 08:22:25;;;;;;;4.30;1.35;;;;;;;22.07;79.48;101584.63;5070609;28;20530;-54
2023/08/12 08:24:50;;;;;;;5.20;1.27;;;;;;;21.97;79.53;101588.38;5068987;28;20040;-45
2023/08/12 08:27:16;;;;;;;5.18;1.27;;;;;;;22.30;80.13;101598.22;5068497;28;20066;-45
2023/08/12 08:29:41;;;;;;;3.00;1.10;;;;;;;22.43;78.32;101594.38;5068562;28;20032;-47
2023/08/12 08:32:06;;;;;;;5.18;1.30;;;;;;;22.58;77.29;101601.09;5068991;28;20490;-46
2023/08/12 08:34:32;;;;;;;4.45;1.10;;;;;;;22.86;77.01;101599.53;5067994;28;20474;-47
2023/08/12 08:36:57;;;;;;;4.82;1.30;;;;;;;22.76;75.99;101599.78;5069762;28;20488;-47
2023/08/12 08:39:22;;;;;;;3.42;1.15;;;;;;;22.98;74.92;101595.69;5055775;28;20033;-44
2023/08/12 08:41:48;;;;;;;5.13;1.33;;;;;;;23.24;73.94;101579.88;5072836;28;20036;-50
2023/08/12 08:44:15;;;;;;;3.03;1.30;;;;;;;23.26;73.54;101575.38;5072790;28;20036;-48
2023/08/12 08:46:41;;;;;;;4.80;1.33;;;;;;;23.67;72.02;101571.56;5074773;28;20033;-43
2023/08/12 08:49:08;;;;;;;3.90;1.33;;;;;;;23.36;72.54;101566.22;5073198;28;20044;-44
2023/08/12 08:51:34;;;;;;;4.22;1.40;;;;;;;23.68;72.02;101562.66;5071902;28;20029;-46
2023/08/12 08:54:02;;;;;;;7.50;1.52;;;;;;;23.68;72.41;101564.44;5071943;28;20120;-45
2023/08/12 08:56:28;;;;;;;5.07;1.60;;;;;;;23.89;72.81;101563.81;5072093;28;20028;-44
2023/08/12 08:58:54;;;;;;;5.60;1.23;;;;;;;24.21;70.98;101582.31;5072133;28;20406;-45
2023/08/12 09:01:22;;;;;;;4.18;1.40;;;;;;;24.61;69.96;101583.72;5071659;28;20406;-48
2023/08/12 09:03:50;;;;;;;5.68;1.70;;;;;;;24.97;67.79;101576.28;5071601;28;20500;-45
2023/08/12 09:06:15;;;;;;;5.80;2.00;;;;;;;25.06;67.75;101581.31;5071764;28;20040;-45
2023/08/12 09:08:48;;;;;;;5.88;1.52;;;;;;;25.11;67.57;101579.34;5072050;28;20047;-51
2023/08/12 09:11:14;;;;;;;6.50;1.60;;;;;;;25.16;67.99;101595.19;5071803;28;20032;-51
2023/08/12 09:13:39;;;;;;;7.97;1.60;;;;;;;26.00;66.22;101585.78;5071728;28;20043;-49
2023/08/12 09:16:05;;;;;;;4.97;1.60;;;;;;;25.59;59.95;101590.03;5072168;28;20040;-48
2023/08/12 09:18:31;;;;;;;5.85;1.50;;;;;;;25.07;65.23;101604.38;5070256;28;20068;-47
2023/08/12 09:20:56;;;;;;;5.47;1.40;;;;;;;25.27;62.33;101593.84;5071945;28;20039;-44
2023/08/12 09:23:22;;;;;;;4.90;1.40;;;;;;;24.65;60.32;101604.00;5070815;28;20036;-50
2023/08/12 09:25:48;;;;;;;5.53;1.55;;;;;;;24.07;61.47;101599.66;5072595;28;20036;-48
2023/08/12 09:28:14;;;;;;;4.13;1.40;;;;;;;24.42;61.80;101606.56;5071772;28;20044;-47
2023/08/12 09:30:40;;;;;;;6.18;1.60;;;;;;;24.39;63.92;101612.00;5072149;28;20036;-46
2023/08/12 09:33:07;;;;;;;8.73;1.80;;;;;;;24.67;62.26;101621.72;5072218;28;20049;-48
2023/08/12 09:35:37;;;;;;;9.50;2.05;;;;;;;25.37;59.80;101631.78;5071192;28;20071;-48
2023/08/12 09:38:04;;;;;;;4.57;1.27;;;;;;;25.51;60.41;101629.47;5071669;28;20383;-45
2023/08/12 09:40:30;;;;;;;6.78;1.60;;;;;;;25.22;59.92;101622.50;5069707;28;20089;-46
2023/08/12 09:42:56;;;;;;;5.53;1.60;;;;;;;25.29;57.85;101616.03;5071092;28;20066;-45
2023/08/12 09:45:24;;;;;;;7.35;1.73;;;;;;;24.57;62.40;101622.06;5070984;28;20514;-45
2023/08/12 09:47:49;;;;;;;7.32;1.63;;;;;;;24.92;57.47;101635.13;5071310;28;20451;-47
2023/08/12 09:50:15;;;;;;;5.38;1.63;;;;;;;25.07;61.76;101624.88;5070389;28;20062;-46
2023/08/12 09:52:40;;;;;;;7.13;1.90;;;;;;;25.18;60.29;101628.03;5070295;28;20024;-46
2023/08/12 09:55:08;;;;;;;6.30;1.90;;;;;;;25.29;60.28;101632.06;5070784;28;20170;-46
2023/08/12 09:57:38;;;;;;;8.25;1.80;;;;;;;25.13;58.12;101627.31;5070691;28;20025;-53
2023/08/12 10:00:07;;;;;;;4.13;1.77;;;;;;;24.93;61.85;101620.88;5071173;28;20040;-50
2023/08/12 10:02:33;;;;;;;8.90;2.00;;;;;;;25.56;60.50;101623.94;5070855;28;20036;-46
2023/08/12 10:04:59;;;;;;;9.00;2.22;;;;;;;25.73;61.73;101624.25;5070724;28;20162;-48
2023/08/12 10:07:25;;;;;;;6.40;1.98;;;;;;;25.83;62.60;101633.66;5070674;28;20033;-45
2023/08/12 10:09:50;;;;;;;7.68;2.05;;;;;;;25.90;62.05;101624.47;5070825;28;20048;-45
2023/08/12 10:12:17;;;;;;;7.18;1.80;;;;;;;25.56;64.30;101630.16;5070607;28;20036;-52
2023/08/12 10:14:42;;;;;;;7.00;1.90;;;;;;;25.62;63.24;101623.75;5070285;28;20093;-48
2023/08/12 10:17:09;;;;;;;8.60;2.03;;;;;;;25.28;63.01;101634.78;5071025;28;20119;-47
2023/08/12 10:19:36;;;;;;;8.70;2.10;;;;;;;25.25;61.60;101630.41;5070213;28;20031;-45
2023/08/12 10:22:03;;;;;;;11.13;2.20;;;;;;;24.99;62.83;101633.13;5070801;28;20040;-46
2023/08/12 10:24:29;;;;;;;9.63;2.20;;;;;;;24.85;62.96;101632.69;5069778;28;20032;-50
2023/08/12 10:26:55;;;;;;;7.15;2.00;;;;;;;25.09;61.35;101629.19;5070539;28;20446;-48
2023/08/12 10:29:22;;;;;;;7.88;1.83;;;;;;;25.41;64.59;101634.28;5069973;28;20091;-46
2023/08/12 10:31:48;;;;;;;9.68;2.08;;;;;;;25.46;60.90;101626.97;5070675;28;20043;-48
2023/08/12 10:34:21;;;;;;;9.20;2.42;;;;;;;25.41;62.79;101633.41;5069821;28;20041;-48
2023/08/12 10:36:47;;;;;;;8.63;2.00;;;;;;;26.02;60.45;101623.13;5069385;28;20406;-45
2023/08/12 10:39:14;;;;;;;8.20;2.10;;;;;;;26.02;60.94;101624.00;5069916;28;20048;-46
2023/08/12 10:41:49;;;;;;;9.27;2.30;;;;;;;25.62;61.49;101623.75;5070291;28;20074;-50
2023/08/12 10:44:15;;;;;;;6.80;2.30;;;;;;;25.07;59.71;101631.03;5069337;28;20052;-45
2023/08/12 10:46:50;;;;;;;9.98;2.38;;;;;;;25.01;62.37;101623.25;5070459;28;20044;-45
2023/08/12 10:49:15;;;;;;;8.77;2.15;;;;;;;24.87;61.33;101620.16;5069825;28;20668;-47
2023/08/12 10:51:44;;;;;;;12.50;2.42;;;;;;;25.02;61.22;101612.53;5070430;28;20041;-46
2023/08/12 10:54:30;;;;;;;9.88;2.10;;;;;;;24.61;61.26;101613.03;5070000;28;20032;-46
2023/08/12 10:57:01;;;;;;;8.27;2.10;;;;;;;24.90;61.30;101620.97;5056392;28;20041;-48
2023/08/12 10:59:45;;;;;;;6.63;2.10;;;;;;;25.09;59.74;101617.66;5069712;28;20043;-49
2023/08/12 11:02:21;;;;;;;9.32;2.22;;;;;;;25.11;59.67;101610.47;5070073;28;20036;-47
2023/08/12 11:04:58;;;;;;;7.80;2.10;;;;;;;25.24;60.02;101610.00;5053057;28;20521;-51
2023/08/12 11:07:56;;;;;;;8.85;2.40;;;;;;;24.99;57.88;101617.13;5066832;28;20331;-47
2023/08/12 11:10:25;;;;;;;5.15;1.90;;;;;;;25.44;55.16;101603.91;5069732;28;20033;-46
2023/08/12 11:12:56;;;;;;;7.40;2.03;;;;;;;24.74;55.63;101611.72;5069230;28;20040;-46
2023/08/12 11:15:36;;;;;;;8.85;2.08;;;;;;;25.30;57.92;101599.09;5069680;28;20041;-45
2023/08/12 11:18:07;;;;;;;8.82;2.50;;;;;;;25.86;56.20;101606.81;5070495;28;20395;-45
2023/08/12 11:20:33;;;;;;;9.93;2.17;;;;;;;25.52;58.93;101608.97;5072436;28;20048;-45